createdAt,value
2023-02-26T00:02:10.856Z,2.35
2023-02-26T00:04:40.731Z,2.25
2023-02-26T00:07:10.212Z,2.20
2023-02-26T00:09:39.682Z,2.30
2023-02-26T00:12:13.495Z,2.10
2023-02-26T00:14:43.729Z,2.20
2023-02-26T00:17:29.523Z,2.45
2023-02-26T00:19:59.744Z,2.20
2023-02-26T00:22:29.867Z,2.20
2023-02-26T00:24:59.388Z,2.20
2023-02-26T00:27:31.404Z,2.30
2023-02-26T00:30:01.629Z,2.30
2023-02-26T00:32:32.280Z,2.47
2023-02-26T00:35:02.397Z,2.30
2023-02-26T00:37:39.342Z,2.47
2023-02-26T00:40:17.942Z,2.47
2023-02-26T00:42:50.611Z,2.35
2023-02-26T00:45:20.944Z,2.55
2023-02-26T00:47:52.430Z,2.22
2023-02-26T00:50:23.007Z,2.50
2023-02-26T00:53:06.159Z,2.50
2023-02-26T00:55:35.611Z,2.33
2023-02-26T00:58:07.734Z,2.50
2023-02-26T01:00:37.283Z,2.40
2023-02-26T01:03:07.386Z,2.20
2023-02-26T01:05:37.263Z,2.70
2023-02-26T01:08:08.409Z,2.88
2023-02-26T01:10:38.647Z,2.65
2023-02-26T01:13:12.329Z,3.50
2023-02-26T01:15:42.921Z,2.70
2023-02-26T01:18:14.659Z,2.28
2023-02-26T01:20:46.453Z,2.20
2023-02-26T01:23:16.943Z,2.60
2023-02-26T01:25:48.620Z,2.53
2023-02-26T01:28:21.400Z,2.80
2023-02-26T01:30:51.367Z,2.75
2023-02-26T01:33:24.365Z,2.80
2023-02-26T01:35:55.262Z,2.60
2023-02-26T01:38:28.936Z,2.70
2023-02-26T01:41:15.573Z,2.60
2023-02-26T01:43:53.016Z,2.50
2023-02-26T01:46:25.847Z,2.70
2023-02-26T01:48:56.621Z,2.80
2023-02-26T01:51:45.353Z,2.60
2023-02-26T01:54:14.846Z,2.60
2023-02-26T01:56:44.617Z,2.53
2023-02-26T01:59:17.870Z,2.67
2023-02-26T02:01:47.356Z,2.75
2023-02-26T02:04:17.562Z,2.80
2023-02-26T02:06:47.058Z,2.50
2023-02-26T02:09:16.546Z,2.80
2023-02-26T02:12:03.319Z,2.58
2023-02-26T02:14:41.527Z,2.65
2023-02-26T02:17:12.620Z,2.60
2023-02-26T02:20:12.435Z,2.90
2023-02-26T02:22:49.523Z,2.70
2023-02-26T02:25:31.280Z,2.97
2023-02-26T02:28:02.736Z,3.40
2023-02-26T02:30:39.601Z,3.65
2023-02-26T02:33:14.122Z,3.47
2023-02-26T02:35:44.567Z,3.13
2023-02-26T02:38:15.292Z,3.03
2023-02-26T02:40:48.802Z,2.80
2023-02-26T02:43:19.727Z,3.17
2023-02-26T02:45:51.637Z,3.00
2023-02-26T02:48:26.850Z,2.92
2023-02-26T02:50:57.938Z,3.40
2023-02-26T02:53:29.720Z,3.10
2023-02-26T02:56:00.577Z,3.13
2023-02-26T02:58:32.136Z,3.30
2023-02-26T03:01:04.646Z,3.75
2023-02-26T03:03:38.175Z,4.00
2023-02-26T03:06:08.027Z,3.60
2023-02-26T03:08:41.347Z,3.67
2023-02-26T03:11:10.972Z,3.20
2023-02-26T03:13:40.427Z,3.40
2023-02-26T03:16:22.753Z,3.20
2023-02-26T03:19:04.648Z,3.30
2023-02-26T03:21:36.904Z,3.25
2023-02-26T03:24:09.911Z,3.70
2023-02-26T03:26:42.963Z,3.38
2023-02-26T03:29:14.169Z,3.40
2023-02-26T03:31:47.260Z,3.25
2023-02-26T03:34:21.676Z,3.55
2023-02-26T03:36:53.815Z,3.60
2023-02-26T03:39:24.928Z,3.10
2023-02-26T03:41:56.600Z,3.40
2023-02-26T03:44:27.687Z,3.40
2023-02-26T03:46:59.605Z,3.75
2023-02-26T03:49:34.553Z,3.92
2023-02-26T03:52:04.838Z,3.13
2023-02-26T03:54:35.803Z,3.22
2023-02-26T03:59:34.949Z,3.17
2023-02-26T04:02:06.665Z,3.20
2023-02-26T04:04:42.397Z,3.30
2023-02-26T04:07:11.982Z,3.42
2023-02-26T04:09:43.130Z,3.40
2023-02-26T04:12:12.736Z,3.25
2023-02-26T04:14:42.138Z,3.30
2023-02-26T04:17:11.624Z,3.35
2023-02-26T04:19:43.886Z,3.35
2023-02-26T04:22:13.434Z,3.15
2023-02-26T04:24:42.905Z,3.42
2023-02-26T04:27:12.418Z,3.30
2023-02-26T04:29:41.942Z,3.28
2023-02-26T04:32:11.584Z,3.13
2023-02-26T04:34:43.797Z,2.78
2023-02-26T04:37:13.482Z,3.08
2023-02-26T04:39:42.911Z,2.70
2023-02-26T04:42:12.630Z,2.60
2023-02-26T04:44:42.066Z,2.60
2023-02-26T04:47:11.822Z,3.20
2023-02-26T04:49:44.015Z,2.80
2023-02-26T04:52:13.489Z,2.80
2023-02-26T04:54:43.425Z,2.75
2023-02-26T04:57:12.878Z,2.63
2023-02-26T04:59:42.457Z,2.70
2023-02-26T05:02:12.574Z,2.83
2023-02-26T05:04:44.763Z,2.83
2023-02-26T05:07:14.548Z,2.60
2023-02-26T05:09:44.039Z,2.83
2023-02-26T05:12:13.539Z,2.60
2023-02-26T05:14:43.042Z,2.60
2023-02-26T05:17:12.782Z,2.67
2023-02-26T05:19:44.833Z,2.75
2023-02-26T05:22:14.341Z,2.95
2023-02-26T05:24:43.830Z,2.58
2023-02-26T05:27:13.341Z,2.50
2023-02-26T05:29:44.974Z,2.33
2023-02-26T05:32:14.523Z,2.70
2023-02-26T05:34:46.728Z,2.60
2023-02-26T05:37:16.206Z,2.60
2023-02-26T05:39:45.866Z,2.50
2023-02-26T05:42:15.312Z,2.40
2023-02-26T05:44:44.790Z,2.55
2023-02-26T05:47:14.255Z,2.50
2023-02-26T05:49:46.501Z,2.10
2023-02-26T05:52:16.056Z,2.42
2023-02-26T05:54:45.504Z,2.30
2023-02-26T05:57:14.967Z,2.35
2023-02-26T05:59:44.476Z,2.40
2023-02-26T06:02:14.311Z,2.33
2023-02-26T06:04:46.523Z,2.20
2023-02-26T06:07:16.008Z,2.50
2023-02-26T06:09:45.462Z,2.00
2023-02-26T06:12:15.257Z,2.20
2023-02-26T06:14:44.925Z,2.47
2023-02-26T06:17:14.363Z,2.08
2023-02-26T06:19:46.555Z,2.22
2023-02-26T06:22:16.011Z,2.25
2023-02-26T06:24:45.470Z,2.33
2023-02-26T06:27:15.069Z,2.03
2023-02-26T06:29:44.555Z,2.08
2023-02-26T06:32:14.119Z,2.28
2023-02-26T06:34:46.366Z,2.40
2023-02-26T06:37:16.464Z,2.40
2023-02-26T06:39:46.163Z,2.30
2023-02-26T06:42:15.579Z,2.10
2023-02-26T06:44:45.038Z,2.20
2023-02-26T06:47:14.542Z,2.22
2023-02-26T06:49:46.692Z,2.17
2023-02-26T06:52:16.146Z,2.05
2023-02-26T06:54:45.784Z,2.30
2023-02-26T06:57:15.311Z,2.25
2023-02-26T06:59:44.899Z,2.38
2023-02-26T07:02:17.981Z,2.10
2023-02-26T07:04:50.069Z,2.60
2023-02-26T07:07:19.615Z,2.33
2023-02-26T07:09:49.402Z,2.33
2023-02-26T07:12:18.930Z,2.28
2023-02-26T07:14:48.602Z,2.22
2023-02-26T07:17:20.526Z,2.20
2023-02-26T07:19:53.605Z,2.10
2023-02-26T07:22:23.108Z,2.50
2023-02-26T07:24:52.563Z,2.42
2023-02-26T07:27:22.229Z,2.35
2023-02-26T07:29:51.679Z,2.20
2023-02-26T07:32:21.121Z,2.40
2023-02-26T07:34:53.307Z,2.40
2023-02-26T07:37:22.768Z,2.17
2023-02-26T07:39:52.371Z,2.33
2023-02-26T07:42:21.818Z,2.30
2023-02-26T07:44:51.255Z,2.50
2023-02-26T07:47:20.880Z,2.50
2023-02-26T07:49:52.934Z,2.33
2023-02-26T07:52:22.416Z,2.45
2023-02-26T07:54:51.838Z,2.10
2023-02-26T07:57:21.476Z,2.45
2023-02-26T07:59:50.972Z,2.20
2023-02-26T08:02:20.457Z,2.00
2023-02-26T08:04:49.896Z,2.50
2023-02-26T08:07:22.029Z,2.17
2023-02-26T08:09:51.461Z,2.30
2023-02-26T08:12:20.933Z,2.30
2023-02-26T08:14:50.596Z,2.20
2023-02-26T08:17:20.052Z,1.98
2023-02-26T08:19:49.505Z,2.00
2023-02-26T08:22:19.181Z,3.33
2023-02-26T08:24:51.306Z,3.22
2023-02-26T08:27:21.943Z,2.22
2023-02-26T08:29:51.602Z,2.67
2023-02-26T08:32:23.055Z,2.00
2023-02-26T08:34:52.764Z,2.05
2023-02-26T08:37:22.731Z,2.90
2023-02-26T08:39:54.936Z,2.10
2023-02-26T08:42:24.401Z,2.50
2023-02-26T08:44:53.904Z,2.10
2023-02-26T08:47:28.722Z,2.20
2023-02-26T08:49:59.083Z,2.03
2023-02-26T08:52:28.733Z,2.30
2023-02-26T08:55:01.192Z,2.08
2023-02-26T08:57:30.628Z,2.17
2023-02-26T09:00:00.163Z,2.00
2023-02-26T09:02:29.826Z,2.20
2023-02-26T09:04:59.314Z,2.20
2023-02-26T09:07:28.784Z,2.10
2023-02-26T09:10:00.943Z,2.33
2023-02-26T09:12:30.488Z,2.10
2023-02-26T09:15:00.731Z,2.13
2023-02-26T09:17:30.662Z,2.20
2023-02-26T09:20:00.240Z,1.95
2023-02-26T09:22:29.689Z,2.00
2023-02-26T09:25:01.951Z,1.90
2023-02-26T09:27:31.490Z,2.10
2023-02-26T09:30:01.123Z,2.13
2023-02-26T09:32:30.916Z,2.05
2023-02-26T09:35:00.518Z,1.90
2023-02-26T09:37:30.046Z,1.80
2023-02-26T09:40:03.334Z,1.88
2023-02-26T09:42:40.584Z,1.58
2023-02-26T09:45:13.050Z,1.60
2023-02-26T09:47:46.718Z,2.10
2023-02-26T09:50:19.260Z,1.80
2023-02-26T09:52:51.773Z,1.90
2023-02-26T09:55:29.618Z,1.73
2023-02-26T09:58:00.646Z,1.75
2023-02-26T10:03:06.907Z,1.50
2023-02-26T10:05:41.052Z,1.60
2023-02-26T10:08:13.966Z,1.73
2023-02-26T10:10:50.787Z,1.80
2023-02-26T10:13:25.351Z,1.75
2023-02-26T10:15:55.319Z,1.55
2023-02-26T10:18:27.040Z,1.70
2023-02-26T10:20:58.211Z,1.80
2023-02-26T10:23:31.647Z,1.77
2023-02-26T10:26:07.394Z,1.60
2023-02-26T10:28:49.053Z,1.70
2023-02-26T10:31:25.216Z,1.70
2023-02-26T10:34:02.809Z,1.63
2023-02-26T10:36:35.482Z,1.80
2023-02-26T10:39:06.467Z,1.70
2023-02-26T10:44:09.634Z,1.85
2023-02-26T10:46:42.927Z,2.00
2023-02-26T10:49:28.557Z,1.60
2023-02-26T10:51:57.976Z,1.70
2023-02-26T10:54:32.612Z,1.70
2023-02-26T10:57:04.679Z,1.60
2023-02-26T10:59:34.215Z,1.60
2023-02-26T11:02:03.835Z,1.60
2023-02-26T11:04:33.292Z,1.52
2023-02-26T11:07:15.752Z,1.75
2023-02-26T11:09:47.503Z,1.65
2023-02-26T11:12:19.805Z,1.60
2023-02-26T11:14:50.607Z,1.50
2023-02-26T11:17:22.292Z,1.50
2023-02-26T11:19:56.834Z,1.80
2023-02-26T11:22:26.533Z,1.50
2023-02-26T11:24:55.993Z,1.60
2023-02-26T11:27:29.406Z,1.60
2023-02-26T11:30:00.402Z,1.40
2023-02-26T11:32:33.257Z,1.40
2023-02-26T11:35:02.820Z,1.42
2023-02-26T11:37:32.891Z,1.50
2023-02-26T11:40:04.014Z,1.40
2023-02-26T11:45:08.524Z,1.42
2023-02-26T11:47:37.958Z,1.80
2023-02-26T11:50:13.696Z,1.40
2023-02-26T11:52:44.540Z,2.00
2023-02-26T11:55:24.410Z,1.40
2023-02-26T11:57:57.109Z,1.45
2023-02-26T12:00:33.396Z,1.30
2023-02-26T12:03:04.542Z,1.60
2023-02-26T12:08:03.348Z,1.52
2023-02-26T12:10:36.022Z,1.40
2023-02-26T12:13:12.721Z,1.40
2023-02-26T12:15:45.779Z,1.50
2023-02-26T12:18:33.434Z,1.30
2023-02-26T12:21:13.878Z,1.50
2023-02-26T12:24:03.021Z,1.52
2023-02-26T12:26:33.068Z,1.40
2023-02-26T12:29:12.978Z,1.50
2023-02-26T12:31:59.334Z,1.40
2023-02-26T12:34:42.802Z,1.38
2023-02-26T12:37:30.535Z,1.40
2023-02-26T12:40:06.494Z,1.38
2023-02-26T12:42:42.776Z,1.40
2023-02-26T12:45:23.648Z,1.50
2023-02-26T12:48:01.357Z,1.40
2023-02-26T12:50:44.145Z,1.63
2023-02-26T12:53:26.596Z,1.30
2023-02-26T12:56:07.266Z,1.30
2023-02-26T12:58:46.647Z,1.50
2023-02-26T13:01:38.640Z,1.38
2023-02-26T13:04:39.974Z,1.40
2023-02-26T13:09:55.690Z,1.30
2023-02-26T13:12:34.695Z,1.50
2023-02-26T13:15:10.895Z,1.35
2023-02-26T13:17:44.699Z,1.33
2023-02-26T13:20:16.189Z,1.27
2023-02-26T13:22:48.581Z,1.70
2023-02-26T13:25:21.216Z,1.50
2023-02-26T13:27:50.665Z,1.48
2023-02-26T13:30:25.819Z,1.40
2023-02-26T13:32:59.377Z,1.20
2023-02-26T13:35:30.590Z,1.40
2023-02-26T13:38:00.822Z,1.40
2023-02-26T13:40:49.485Z,1.33
2023-02-26T13:43:27.035Z,1.50
2023-02-26T13:46:01.625Z,1.40
2023-02-26T13:48:48.767Z,1.40
2023-02-26T13:51:25.924Z,1.30
2023-02-26T13:53:57.163Z,1.40
2023-02-26T13:59:35.946Z,1.60
2023-02-26T14:02:06.476Z,1.50
2023-02-26T14:04:53.083Z,1.30
2023-02-26T14:07:48.581Z,1.50
2023-02-26T14:10:18.955Z,1.48
2023-02-26T14:12:48.420Z,1.50
2023-02-26T14:15:26.947Z,1.50
2023-02-26T14:18:04.310Z,1.42
2023-02-26T14:20:37.507Z,1.60
2023-02-26T14:23:36.427Z,1.60
2023-02-26T14:26:14.324Z,1.30
2023-02-26T14:28:46.344Z,1.40
2023-02-26T14:31:22.339Z,1.40
2023-02-26T14:34:02.272Z,1.52
2023-02-26T14:36:36.650Z,1.40
2023-02-26T14:39:09.294Z,1.60
2023-02-26T14:41:41.393Z,1.58
2023-02-26T14:44:14.938Z,1.60
2023-02-26T14:46:44.500Z,1.40
2023-02-26T14:52:46.600Z,1.60
2023-02-26T14:55:39.830Z,1.40
2023-02-26T14:58:35.338Z,1.40
2023-02-26T15:01:20.826Z,1.48
2023-02-26T15:04:17.318Z,1.40
2023-02-26T15:06:57.005Z,1.48
2023-02-26T15:09:31.078Z,1.50
2023-02-26T15:12:07.089Z,1.40
2023-02-26T15:14:53.429Z,1.20
2023-02-26T15:17:31.983Z,1.38
2023-02-26T15:20:09.019Z,1.40
2023-02-26T15:22:46.745Z,1.65
2023-02-26T15:25:26.528Z,1.30
2023-02-26T15:27:56.084Z,1.45
2023-02-26T15:30:26.027Z,1.20
2023-02-26T15:32:59.847Z,1.25
2023-02-26T15:35:30.785Z,1.30
2023-02-26T15:38:02.437Z,1.30
2023-02-26T15:40:35.725Z,1.30
2023-02-26T15:43:05.193Z,1.30
2023-02-26T15:45:36.145Z,1.30
2023-02-26T15:48:07.417Z,1.20
2023-02-26T15:50:38.899Z,1.50
2023-02-26T15:53:08.562Z,1.25
2023-02-26T15:55:50.569Z,1.50
2023-02-26T15:58:23.164Z,1.60
2023-02-26T16:00:55.599Z,1.42
2023-02-26T16:03:31.508Z,1.40
2023-02-26T16:06:01.157Z,1.50
2023-02-26T16:08:30.639Z,1.40
2023-02-26T16:11:02.747Z,1.40
2023-02-26T16:13:37.160Z,1.30
2023-02-26T16:16:10.034Z,1.40
2023-02-26T16:18:39.722Z,1.50
2023-02-26T16:21:09.778Z,1.40
2023-02-26T16:23:44.624Z,1.58
2023-02-26T16:26:19.933Z,1.30
2023-02-26T16:28:49.758Z,1.58
2023-02-26T16:31:21.237Z,1.30
2023-02-26T16:33:56.102Z,1.27
2023-02-26T16:36:27.536Z,1.33
2023-02-26T16:39:02.734Z,1.60
2023-02-26T16:41:37.637Z,2.22
2023-02-26T16:44:08.143Z,1.48
2023-02-26T16:46:43.178Z,1.50
2023-02-26T16:49:15.454Z,1.45
2023-02-26T16:51:45.197Z,1.65
2023-02-26T16:54:18.655Z,2.22
2023-02-26T16:56:51.986Z,2.60
2023-02-26T16:59:22.973Z,2.53
2023-02-26T17:04:26.831Z,2.67
2023-02-26T17:06:56.312Z,6.15
2023-02-26T17:09:37.086Z,3.30
2023-02-26T17:12:16.188Z,5.05
2023-02-26T17:14:46.509Z,3.50
2023-02-26T17:17:16.311Z,3.63
2023-02-26T17:19:45.801Z,3.88
2023-02-26T17:22:19.018Z,1.63
2023-02-26T17:24:49.478Z,3.00
2023-02-26T17:27:39.406Z,2.00
2023-02-26T17:30:11.833Z,2.10
2023-02-26T17:32:41.421Z,3.17
2023-02-26T17:35:11.661Z,2.08
2023-02-26T17:37:41.149Z,1.53
2023-02-26T17:40:19.673Z,2.25
2023-02-26T17:42:52.039Z,1.50
2023-02-26T17:45:22.891Z,1.70
2023-02-26T17:47:52.768Z,1.30
2023-02-26T17:50:37.845Z,1.60
2023-02-26T17:53:08.245Z,1.88
2023-02-26T17:55:39.529Z,1.77
2023-02-26T17:58:17.087Z,1.60
2023-02-26T18:00:53.121Z,2.00
2023-02-26T18:03:23.057Z,2.03
2023-02-26T18:05:52.692Z,1.70
2023-02-26T18:08:23.951Z,1.70
2023-02-26T18:10:53.747Z,1.67
2023-02-26T18:13:25.864Z,1.30
2023-02-26T18:15:56.606Z,1.40
2023-02-26T18:18:26.679Z,1.50
2023-02-26T18:20:56.173Z,1.40
2023-02-26T18:23:25.803Z,1.65
2023-02-26T18:25:56.615Z,1.65
2023-02-26T18:28:29.611Z,1.70
2023-02-26T18:30:59.842Z,1.50
2023-02-26T18:33:29.483Z,1.60
2023-02-26T18:35:59.499Z,1.40
2023-02-26T18:38:29.992Z,1.50
2023-02-26T18:41:01.931Z,1.42
2023-02-26T18:43:34.475Z,1.60
2023-02-26T18:46:04.030Z,1.30
2023-02-26T18:48:33.567Z,1.20
2023-02-26T18:51:03.520Z,1.45
2023-02-26T18:53:34.131Z,1.60
2023-02-26T18:56:03.861Z,1.25
2023-02-26T18:58:35.971Z,1.52
2023-02-26T19:01:05.647Z,1.63
2023-02-26T19:03:35.520Z,1.30
2023-02-26T19:06:06.195Z,1.40
2023-02-26T19:08:35.630Z,1.50
2023-02-26T19:11:05.095Z,1.60
2023-02-26T19:13:37.454Z,1.40
2023-02-26T19:16:07.492Z,1.42
2023-02-26T19:18:37.026Z,1.60
2023-02-26T19:21:07.125Z,1.35
2023-02-26T19:23:36.639Z,1.50
2023-02-26T19:26:06.275Z,1.42
2023-02-26T19:28:38.359Z,1.55
2023-02-26T19:31:09.731Z,1.38
2023-02-26T19:33:45.450Z,1.35
2023-02-26T19:36:16.295Z,1.52
2023-02-26T19:38:47.637Z,1.40
2023-02-26T19:41:18.782Z,1.45
2023-02-26T19:43:50.859Z,1.50
2023-02-26T19:46:20.656Z,1.30
2023-02-26T19:48:50.177Z,1.50
2023-02-26T19:51:19.817Z,1.40
2023-02-26T19:53:49.271Z,1.40
2023-02-26T19:56:18.753Z,1.40
2023-02-26T19:58:50.902Z,1.50
2023-02-26T20:01:20.970Z,1.40
2023-02-26T20:03:51.225Z,1.33
2023-02-26T20:06:20.815Z,1.60
2023-02-26T20:08:50.303Z,1.50
2023-02-26T20:11:19.749Z,1.33
2023-02-26T20:13:51.935Z,1.30
2023-02-26T20:16:21.488Z,1.50
2023-02-26T20:18:50.951Z,1.48
2023-02-26T20:21:20.465Z,1.40
2023-02-26T20:23:50.071Z,1.80
2023-02-26T20:26:19.514Z,1.60
2023-02-26T20:28:51.577Z,1.60
2023-02-26T20:31:21.221Z,1.60
2023-02-26T20:33:50.747Z,1.63
2023-02-26T20:36:20.511Z,1.60
2023-02-26T20:38:49.982Z,1.60
2023-02-26T20:41:19.487Z,1.70
2023-02-26T20:43:51.696Z,1.60
2023-02-26T20:46:21.204Z,1.50
2023-02-26T20:48:50.766Z,1.67
2023-02-26T20:51:20.490Z,1.60
2023-02-26T20:53:51.490Z,1.50
2023-02-26T20:58:52.873Z,1.60
2023-02-26T21:01:22.311Z,1.50
2023-02-26T21:03:54.119Z,1.40
2023-02-26T21:06:24.052Z,1.40
2023-02-26T21:08:53.620Z,1.60
2023-02-26T21:11:23.584Z,1.50
2023-02-26T21:13:55.688Z,1.30
2023-02-26T21:16:25.309Z,1.40
2023-02-26T21:18:54.800Z,1.50
2023-02-26T21:21:24.321Z,1.50
2023-02-26T21:23:53.940Z,1.58
2023-02-26T21:26:27.315Z,1.60
2023-02-26T21:29:00.971Z,1.65
2023-02-26T21:31:30.722Z,1.67
2023-02-26T21:34:08.264Z,1.58
2023-02-26T21:36:47.304Z,1.50
2023-02-26T21:39:16.861Z,1.40
2023-02-26T21:41:46.401Z,1.42
2023-02-26T21:44:18.458Z,1.48
2023-02-26T21:46:47.981Z,1.50
2023-02-26T21:49:17.531Z,1.45
2023-02-26T21:51:46.991Z,1.67
2023-02-26T21:54:16.464Z,1.77
2023-02-26T21:56:46.025Z,1.60
2023-02-26T21:59:18.201Z,1.60
2023-02-26T22:01:47.680Z,1.70
2023-02-26T22:04:17.264Z,1.60
2023-02-26T22:06:46.784Z,1.77
2023-02-26T22:09:17.360Z,1.35
2023-02-26T22:11:46.855Z,1.50
2023-02-26T22:14:19.251Z,1.50
2023-02-26T22:16:48.835Z,1.65
2023-02-26T22:19:18.320Z,1.50
2023-02-26T22:21:47.769Z,2.40
2023-02-26T22:24:17.299Z,1.65
2023-02-26T22:26:48.940Z,1.60
2023-02-26T22:29:21.041Z,1.55
2023-02-26T22:31:51.078Z,1.73
2023-02-26T22:34:20.968Z,1.73
2023-02-26T22:36:52.204Z,1.55
2023-02-26T22:39:21.961Z,1.40
2023-02-26T22:41:51.528Z,1.40
2023-02-26T22:44:23.684Z,1.50
2023-02-26T22:46:53.170Z,1.63
2023-02-26T22:49:22.834Z,1.35
2023-02-26T22:51:52.294Z,1.60
2023-02-26T22:54:21.790Z,1.80
2023-02-26T22:56:51.391Z,1.60
2023-02-26T22:59:23.693Z,1.63
2023-02-26T23:01:53.195Z,1.60
2023-02-26T23:04:22.935Z,1.80
2023-02-26T23:06:52.506Z,1.80
2023-02-26T23:09:21.946Z,1.70
2023-02-26T23:11:51.481Z,1.70
2023-02-26T23:14:23.505Z,1.60
2023-02-26T23:16:53.030Z,1.60
2023-02-26T23:19:22.515Z,1.50
2023-02-26T23:21:52.030Z,1.52
2023-02-26T23:24:21.453Z,1.60
2023-02-26T23:26:51.031Z,1.73
2023-02-26T23:29:23.068Z,1.80
2023-02-26T23:31:52.743Z,1.80
2023-02-26T23:34:22.402Z,1.65
2023-02-26T23:36:51.885Z,1.70
2023-02-26T23:39:21.322Z,1.95
2023-02-26T23:41:50.882Z,1.58
2023-02-26T23:44:22.986Z,1.45
2023-02-26T23:46:52.536Z,1.40
2023-02-26T23:49:21.967Z,1.50
2023-02-26T23:51:51.409Z,1.70
2023-02-26T23:54:20.871Z,1.40
2023-02-26T23:56:50.330Z,1.60
2023-02-26T23:59:19.827Z,1.58
